Time;durP1;ratioP1;P1;durP2;ratioP2;P2;SDS_P1;SDS_P2;PMS_P1;PMS_P2;Temp;Humidity;BMP_temperature;BMP_pressure;BME280_temperature;BME280_humidity;BME280_pressure;Samples;Min_cycle;Max_cycle;Signal;HPM_P1;HPM_P2
2023/07/15 00:00:17;;;;;;;20.98;1.35;;;;;;;26.77;53.96;99088.19;7311897;19;129937;-37
2023/07/15 00:02:43;;;;;;;42.35;2.40;;;;;;;26.77;54.04;99095.28;7311630;19;128955;-36
2023/07/15 00:05:41;;;;;;;26.17;1.67;;;;;;;26.85;54.39;99090.72;7312153;19;128861;-37
2023/07/15 00:08:06;;;;;;;36.53;2.15;;;;;;;26.81;54.19;99089.44;7308223;19;130176;-40
2023/07/15 00:10:38;;;;;;;56.20;3.40;;;;;;;26.73;53.96;99068.47;7311689;19;131473;-39
2023/07/15 00:13:05;;;;;;;26.73;1.55;;;;;;;26.80;54.05;99082.56;7311367;19;129211;-39
2023/07/15 00:15:30;;;;;;;49.47;2.83;;;;;;;26.80;54.44;99087.81;7310583;19;128790;-39
2023/07/15 00:17:56;;;;;;;44.13;2.50;;;;;;;26.65;52.10;99083.53;7312179;19;129237;-39
2023/07/15 00:20:21;;;;;;;31.13;1.87;;;;;;;26.29;50.80;99088.75;7311827;19;130346;-35
2023/07/15 00:22:47;;;;;;;35.40;2.10;;;;;;;26.10;50.19;99068.22;7311856;19;130755;-39
2023/07/15 00:25:16;;;;;;;31.93;1.80;;;;;;;26.33;53.88;99076.03;7310566;19;129341;-36
2023/07/15 00:27:43;;;;;;;69.45;4.05;;;;;;;26.55;53.79;99073.28;7309686;19;129087;-38
2023/07/15 00:30:14;;;;;;;37.53;2.22;;;;;;;26.67;54.09;99074.50;7310724;19;129251;-39
2023/07/15 00:32:40;;;;;;;43.47;2.58;;;;;;;26.71;54.13;99067.00;7311270;19;129958;-38
2023/07/15 00:35:19;;;;;;;24.90;1.45;;;;;;;26.77;54.36;99061.81;7312160;19;129522;-39
2023/07/15 00:37:45;;;;;;;59.15;3.50;;;;;;;26.77;54.18;99064.47;7310213;19;130975;-37
2023/07/15 00:40:11;;;;;;;23.07;1.47;;;;;;;26.79;53.58;99059.78;7311457;19;129470;-38
2023/07/15 00:43:14;;;;;;;26.38;1.52;;;;;;;26.84;54.28;99052.13;7312745;19;129271;-38
2023/07/15 00:45:40;;;;;;;29.92;1.67;;;;;;;26.80;54.29;99056.16;7308960;19;130888;-39
2023/07/15 00:48:15;;;;;;;25.23;1.63;;;;;;;26.74;54.43;99042.91;7310079;19;131622;-38
2023/07/15 00:50:42;;;;;;;22.83;1.40;;;;;;;26.81;54.00;99054.34;7310415;19;129633;-38
2023/07/15 00:53:12;;;;;;;29.02;1.77;;;;;;;26.79;54.13;99065.06;7310496;19;129468;-35
2023/07/15 00:55:38;;;;;;;51.67;3.03;;;;;;;26.79;54.25;99059.78;7309675;19;129462;-39
2023/07/15 00:58:04;;;;;;;53.70;3.35;;;;;;;26.36;49.89;99073.84;7309453;19;129158;-38
2023/07/15 01:00:31;;;;;;;32.77;1.80;;;;;;;26.21;50.20;99066.94;7308435;19;129269;-38
2023/07/15 01:02:56;;;;;;;;;;;;;;;26.28;52.80;99075.78;7310397;19;129188;-36
2023/07/15 01:05:22;;;;;;;45.78;2.55;;;;;;;26.51;53.66;99066.72;7308729;19;129020;-39
2023/07/15 01:07:47;;;;;;;6.47;0.60;;;;;;;26.64;53.66;99061.63;7310798;19;129980;-37
2023/07/15 01:10:12;;;;;;;41.60;2.57;;;;;;;26.70;53.91;99062.75;7308025;19;129254;-37
2023/07/15 01:12:37;;;;;;;36.30;1.93;;;;;;;26.73;53.99;99060.53;7310081;19;130298;-37
2023/07/15 01:15:03;;;;;;;58.57;3.40;;;;;;;26.79;54.01;99065.06;7308666;19;128990;-40
2023/07/15 01:17:29;;;;;;;9.53;0.70;;;;;;;26.79;53.96;99057.16;7308148;19;130302;-37
2023/07/15 01:19:54;;;;;;;30.00;1.70;;;;;;;26.81;54.01;99056.97;7316175;19;130301;-38
2023/07/15 01:22:21;;;;;;;37.90;2.30;;;;;;;26.79;54.28;99048.44;7316475;19;129348;-39
2023/07/15 01:24:46;;;;;;;37.40;2.15;;;;;;;26.81;54.59;99055.16;7317151;19;129725;-38
2023/07/15 01:27:12;;;;;;;103.77;6.33;;;;;;;26.80;54.14;99050.91;7314474;19;129207;-39
2023/07/15 01:29:37;;;;;;;47.30;2.57;;;;;;;26.82;54.31;99054.13;7317368;19;129216;-39
2023/07/15 01:32:03;;;;;;;41.33;2.30;;;;;;;26.81;54.48;99063.06;7314923;19;129649;-38
2023/07/15 01:34:30;;;;;;;36.70;2.13;;;;;;;26.56;51.14;99050.38;7317354;19;129262;-38
2023/07/15 01:36:56;;;;;;;30.05;1.83;;;;;;;26.30;50.17;99052.66;7316302;19;130355;-40
2023/07/15 01:39:22;;;;;;;65.33;3.97;;;;;;;26.20;50.23;99047.69;7315573;19;130029;-39
2023/07/15 01:41:47;;;;;;;41.93;2.40;;;;;;;26.32;53.44;99040.94;7314339;19;130352;-36
2023/07/15 01:44:14;;;;;;;28.00;1.63;;;;;;;26.56;53.66;99038.00;7317447;19;129099;-34
2023/07/15 01:46:40;;;;;;;22.10;1.40;;;;;;;26.67;53.82;99034.09;7313342;19;130730;-37
2023/07/15 01:49:07;;;;;;;27.90;1.67;;;;;;;26.72;53.88;99029.91;7316139;19;130947;-39
2023/07/15 01:51:33;;;;;;;72.03;4.22;;;;;;;26.69;54.32;99017.06;7314115;19;129274;-37
2023/07/15 01:53:59;;;;;;;;;;;;;;;26.88;53.64;99023.56;7316344;19;128834;-36
2023/07/15 01:56:24;;;;;;;55.90;3.35;;;;;;;26.80;53.77;99032.44;7315056;19;129165;-38
2023/07/15 01:58:50;;;;;;;23.20;1.37;;;;;;;26.82;53.62;99032.25;7315732;19;129292;-38
2023/07/15 02:01:15;;;;;;;42.67;2.30;;;;;;;26.80;54.40;99032.44;7314866;19;129001;-35
2023/07/15 02:03:40;;;;;;;19.93;1.30;;;;;;;26.79;53.75;99028.13;7315724;19;129353;-37
2023/07/15 02:06:06;;;;;;;24.97;1.43;;;;;;;26.80;53.92;99029.78;7314184;19;129448;-38
2023/07/15 02:08:32;;;;;;;66.40;3.83;;;;;;;26.82;54.06;99030.41;7315081;19;130421;-39
2023/07/15 02:10:57;;;;;;;37.07;2.20;;;;;;;26.46;50.02;99024.28;7314811;19;129947;-38
2023/07/15 02:13:23;;;;;;;22.53;1.40;;;;;;;26.28;50.35;99030.97;7316013;19;130301;-39
2023/07/15 02:15:48;;;;;;;29.73;1.77;;;;;;;26.25;49.82;99034.78;7314625;19;131867;-34
2023/07/15 02:18:13;;;;;;;39.03;2.23;;;;;;;26.46;53.38;99037.47;7315155;19;130365;-39
2023/07/15 02:20:39;;;;;;;71.17;4.13;;;;;;;26.62;53.76;99031.16;7314294;19;130449;-40
2023/07/15 02:23:05;;;;;;;40.07;2.30;;;;;;;26.70;54.05;99026.63;7315075;19;129198;-36
2023/07/15 02:25:32;;;;;;;44.17;2.70;;;;;;;26.75;53.73;99037.44;7312863;19;131122;-37
2023/07/15 02:27:57;;;;;;;36.15;2.03;;;;;;;26.76;53.69;99030.34;7315122;19;130389;-39
2023/07/15 02:30:22;;;;;;;44.93;2.40;;;;;;;26.79;53.52;99011.53;7313779;19;130620;-40
2023/07/15 02:32:48;;;;;;;36.23;2.07;;;;;;;26.80;53.93;99013.97;7315329;19;131618;-39
2023/07/15 02:35:13;;;;;;;41.17;2.60;;;;;;;26.75;54.05;99005.78;7314546;19;129911;-36
2023/07/15 02:37:41;;;;;;;28.37;1.87;;;;;;;26.83;54.59;99018.03;7312784;19;131050;-35
2023/07/15 02:40:08;;;;;;;29.65;1.70;;;;;;;26.82;53.69;99006.66;7315112;19;129102;-38
2023/07/15 02:42:34;;;;;;;25.05;1.45;;;;;;;26.73;54.13;99005.16;7314907;19;128769;-39
2023/07/15 02:45:03;;;;;;;24.93;1.40;;;;;;;26.83;54.21;99018.88;7314454;19;129126;-41
2023/07/15 02:47:29;;;;;;;51.20;3.28;;;;;;;26.73;54.18;99007.81;7312538;19;130269;-38
2023/07/15 02:49:56;;;;;;;72.07;4.30;;;;;;;26.35;49.89;99014.22;7314879;19;129841;-35
2023/07/15 02:52:21;;;;;;;;;;;;;;;26.25;51.78;99013.69;7315449;19;129158;-39
2023/07/15 02:54:47;;;;;;;55.53;3.43;;;;;;;26.20;50.49;99016.06;7314352;19;129901;-38
2023/07/15 02:57:12;;;;;;;59.00;3.43;;;;;;;26.47;54.89;99027.75;7313626;19;129600;-38
2023/07/15 02:59:38;;;;;;;31.43;1.73;;;;;;;26.29;50.75;99027.31;7315752;19;129061;-36
2023/07/15 03:02:04;;;;;;;32.85;2.03;;;;;;;26.16;50.58;99030.63;7312221;19;129245;-39
2023/07/15 03:04:29;;;;;;;20.73;1.20;;;;;;;26.13;50.09;99030.94;7314819;19;129343;-35
2023/07/15 03:06:57;;;;;;;89.23;5.37;;;;;;;26.16;51.99;99022.72;7310689;19;129396;-37
2023/07/15 03:09:23;;;;;;;22.33;1.40;;;;;;;26.46;53.64;99026.91;7315708;19;129788;-39
2023/07/15 03:11:48;;;;;;;38.73;2.33;;;;;;;26.57;53.29;99015.09;7312130;19;129461;-39
2023/07/15 03:14:13;;;;;;;6.77;0.60;;;;;;;26.69;53.59;99019.72;7313461;19;130457;-38
2023/07/15 03:16:39;;;;;;;43.90;2.33;;;;;;;26.73;53.30;99020.97;7313864;19;131470;-39
2023/07/15 03:19:04;;;;;;;59.77;3.63;;;;;;;26.77;53.83;99027.53;7314921;19;129618;-35
2023/07/15 03:21:29;;;;;;;44.63;2.77;;;;;;;26.78;53.76;99021.25;7310147;19;130956;-38
2023/07/15 03:23:55;;;;;;;35.90;2.40;;;;;;;26.80;53.97;99019.25;7312930;19;131048;-35
2023/07/15 03:26:20;;;;;;;40.50;2.30;;;;;;;26.81;54.20;99031.41;7312596;19;130338;-38
2023/07/15 03:28:46;;;;;;;25.37;1.60;;;;;;;26.83;54.20;99032.06;7314582;19;129957;-39
2023/07/15 03:31:11;;;;;;;63.53;3.43;;;;;;;26.75;54.05;99011.06;7312107;19;131154;-37
2023/07/15 03:33:36;;;;;;;50.73;2.73;;;;;;;26.84;54.36;99025.75;7313796;19;129736;-36
2023/07/15 03:36:03;;;;;;;74.43;4.23;;;;;;;26.85;54.19;99027.41;7312761;19;131855;-36
2023/07/15 03:38:29;;;;;;;16.02;1.02;;;;;;;26.74;53.99;99004.16;7313364;19;130896;-38
2023/07/15 03:40:54;;;;;;;23.13;1.47;;;;;;;26.84;54.42;99020.47;7312756;19;130911;-36
2023/07/15 03:43:20;;;;;;;37.87;2.07;;;;;;;26.84;54.57;99028.41;7310279;19;131454;-38
2023/07/15 03:45:45;;;;;;;34.33;1.93;;;;;;;26.63;51.49;99025.72;7312573;19;130514;-39
2023/07/15 03:48:10;;;;;;;57.77;3.63;;;;;;;26.31;50.72;99027.97;7312478;19;131600;-40
2023/07/15 03:50:36;;;;;;;31.70;1.93;;;;;;;26.28;50.10;99026.50;7312205;19;131205;-37
2023/07/15 03:53:01;;;;;;;56.83;3.17;;;;;;;26.38;53.19;99010.38;7312124;19;130270;-37
2023/07/15 03:55:27;;;;;;;10.87;0.73;;;;;;;26.63;54.02;99017.81;7313515;19;131592;-35
2023/07/15 03:57:52;;;;;;;25.67;1.53;;;;;;;26.73;53.98;99028.91;7313680;19;129970;-37
2023/07/15 04:00:17;;;;;;;45.23;2.77;;;;;;;26.77;53.55;99030.16;7311725;19;129335;-39
2023/07/15 04:02:49;;;;;;;46.83;2.60;;;;;;;26.79;54.00;99024.72;7312858;19;129191;-37
2023/07/15 04:05:14;;;;;;;43.40;2.88;;;;;;;26.78;53.95;99021.25;7311482;19;131180;-39
2023/07/15 04:07:40;;;;;;;33.40;1.97;;;;;;;26.82;54.13;99024.34;7310435;19;129124;-39
2023/07/15 04:10:06;;;;;;;18.23;1.17;;;;;;;26.83;53.60;99026.78;7311973;19;130493;-38
2023/07/15 04:12:31;;;;;;;38.77;2.17;;;;;;;26.83;54.22;99024.13;7312856;19;132762;-37
2023/07/15 04:14:57;;;;;;;24.10;1.53;;;;;;;26.82;54.26;99022.50;7313333;19;129816;-38
2023/07/15 04:17:22;;;;;;;27.70;1.80;;;;;;;26.77;53.87;99016.97;7311085;19;129745;-36
2023/07/15 04:19:48;;;;;;;39.47;2.33;;;;;;;26.57;50.73;99023.00;7312567;19;130144;-36
2023/07/15 04:22:13;;;;;;;70.33;4.10;;;;;;;26.33;50.20;99018.06;7307705;19;129098;-35
2023/07/15 04:24:38;;;;;;;10.13;0.73;;;;;;;26.20;49.69;99023.97;7312564;19;129704;-36
2023/07/15 04:27:04;;;;;;;55.03;3.43;;;;;;;26.41;53.21;99024.00;7309044;19;129594;-36
2023/07/15 04:29:30;;;;;;;28.37;1.60;;;;;;;26.41;51.18;99015.31;7311649;19;129816;-36
2023/07/15 04:31:56;;;;;;;67.35;3.63;;;;;;;26.19;50.15;99018.88;7309622;19;130018;-33
2023/07/15 04:34:21;;;;;;;78.30;4.93;;;;;;;26.14;49.61;99023.88;7311325;19;129449;-36
2023/07/15 04:36:47;;;;;;;42.43;2.60;;;;;;;26.12;49.91;99010.06;7310498;19;130138;-37
2023/07/15 04:39:12;;;;;;;34.17;1.93;;;;;;;26.44;53.28;99017.56;7311208;19;129055;-38
2023/07/15 04:41:37;;;;;;;34.70;2.10;;;;;;;26.61;53.00;99014.53;7309262;19;129563;-35
2023/07/15 04:44:03;;;;;;;9.80;0.70;;;;;;;26.70;53.77;99018.72;7311662;19;129223;-39
2023/07/15 04:46:29;;;;;;;57.50;3.60;;;;;;;26.75;53.71;99026.91;7309203;19;129946;-38
2023/07/15 04:48:55;;;;;;;44.30;2.55;;;;;;;26.77;53.57;99022.25;7310929;19;129160;-40
2023/07/15 04:51:20;;;;;;;37.53;2.37;;;;;;;26.79;54.19;99022.88;7309313;19;129016;-38
2023/07/15 04:53:46;;;;;;;25.80;1.53;;;;;;;26.80;53.62;99019.25;7317070;19;131369;-39
2023/07/15 04:56:11;;;;;;;26.10;1.50;;;;;;;26.81;53.83;99023.50;7325383;19;128902;-39
2023/07/15 04:58:38;;;;;;;26.73;1.80;;;;;;;26.82;53.99;99021.69;7324815;19;130240;-34
2023/07/15 05:01:03;;;;;;;33.25;1.98;;;;;;;26.82;54.06;99025.13;7324953;19;129350;-37
2023/07/15 05:03:30;;;;;;;63.17;3.93;;;;;;;26.83;54.51;99029.41;7324957;19;130506;-39
2023/07/15 05:05:55;;;;;;;;;;;;;;;26.91;53.81;99021.38;7324267;19;129755;-38
2023/07/15 05:08:22;;;;;;;45.53;2.57;;;;;;;26.86;53.85;99028.22;7323396;19;129869;-41
2023/07/15 05:10:51;;;;;;;;;;;;;;;26.85;54.48;99002.84;7325879;19;130320;-40
2023/07/15 05:13:17;;;;;;;21.95;1.33;;;;;;;26.85;54.38;99013.41;7324947;19;130404;-38
2023/07/15 05:15:43;;;;;;;56.43;3.43;;;;;;;26.82;54.11;99019.06;7323294;19;129020;-39
2023/07/15 05:18:08;;;;;;;47.10;2.55;;;;;;;26.39;50.14;99022.59;7323815;19;129016;-40
2023/07/15 05:20:34;;;;;;;56.83;3.53;;;;;;;26.19;50.29;99026.78;7323570;19;129184;-37
2023/07/15 05:23:01;;;;;;;26.75;1.70;;;;;;;26.27;52.79;99022.22;7323555;19;129683;-36
2023/07/15 05:25:27;;;;;;;38.08;2.35;;;;;;;26.56;53.86;99021.38;7322817;19;128969;-34
2023/07/15 05:27:53;;;;;;;39.13;2.20;;;;;;;26.69;54.17;99022.34;7323560;19;128997;-40
2023/07/15 05:30:19;;;;;;;25.43;1.53;;;;;;;26.75;53.72;99026.06;7324013;19;129519;-40
2023/07/15 05:32:44;;;;;;;46.22;2.80;;;;;;;26.78;53.93;99018.59;7322797;19;131105;-38
2023/07/15 05:35:10;;;;;;;30.43;1.77;;;;;;;26.80;54.01;99018.41;7324474;19;129205;-37
2023/07/15 05:37:36;;;;;;;88.07;4.83;;;;;;;26.82;54.11;99027.75;7322226;19;128880;-37
2023/07/15 05:40:01;;;;;;;27.43;1.63;;;;;;;26.83;53.96;99028.59;7324433;19;129446;-37
2023/07/15 05:42:26;;;;;;;27.40;1.70;;;;;;;26.84;54.13;99019.69;7325558;19;129153;-36
2023/07/15 05:44:52;;;;;;;37.77;2.23;;;;;;;26.84;53.78;99025.75;7325100;19;128871;-36
2023/07/15 05:47:17;;;;;;;52.87;3.03;;;;;;;26.85;54.25;99024.78;7323021;19;129015;-36
2023/07/15 05:49:42;;;;;;;47.90;2.90;;;;;;;26.85;54.36;99022.13;7324452;19;130250;-39
2023/07/15 05:52:08;;;;;;;7.80;0.63;;;;;;;26.84;53.98;99025.75;7319968;19;129613;-39
2023/07/15 05:54:34;;;;;;;39.17;2.20;;;;;;;26.59;50.87;99021.00;7323745;19;129394;-38
2023/07/15 05:56:59;;;;;;;57.53;3.50;;;;;;;26.32;50.13;99019.88;7322882;19;129223;-35
2023/07/15 05:59:24;;;;;;;28.23;1.63;;;;;;;26.23;50.31;99015.69;7323833;19;130343;-39
2023/07/15 06:01:49;;;;;;;65.20;3.93;;;;;;;26.39;53.53;99015.50;7320460;19;131109;-40
2023/07/15 06:04:15;;;;;;;43.97;2.43;;;;;;;26.61;53.61;99021.63;7322319;19;130325;-39
2023/07/15 06:06:40;;;;;;;51.97;3.23;;;;;;;26.69;53.84;99017.06;7312393;19;130311;-36
2023/07/15 06:09:06;;;;;;;27.20;1.60;;;;;;;26.76;53.67;99022.41;7316313;19;129780;-39
2023/07/15 06:11:32;;;;;;;20.27;1.30;;;;;;;26.77;53.88;99014.34;7313531;19;129138;-38
2023/07/15 06:14:00;;;;;;;73.05;4.28;;;;;;;26.80;54.28;99021.06;7315035;19;128841;-38
2023/07/15 06:16:29;;;;;;;31.23;1.83;;;;;;;26.80;53.94;99016.59;7314684;19;130228;-37
2023/07/15 06:18:55;;;;;;;50.88;3.17;;;;;;;26.82;53.69;99016.41;7314664;19;130483;-36
2023/07/15 06:21:20;;;;;;;26.63;1.47;;;;;;;26.74;54.53;98993.59;7312898;19;129572;-34
2023/07/15 06:23:45;;;;;;;43.07;2.37;;;;;;;26.83;54.20;99010.94;7314710;19;129857;-38
2023/07/15 06:26:11;;;;;;;26.03;1.63;;;;;;;26.82;54.16;99008.50;7314232;19;129704;-40
2023/07/15 06:28:36;;;;;;;23.37;1.43;;;;;;;26.84;54.18;99015.22;7316221;19;130907;-36
2023/07/15 06:31:04;;;;;;;66.53;4.03;;;;;;;26.73;54.64;99002.53;7313937;19;130278;-40
2023/07/15 06:33:30;;;;;;;64.10;3.50;;;;;;;26.36;49.91;99007.13;7315171;19;129484;-37
2023/07/15 06:35:55;;;;;;;60.22;3.70;;;;;;;26.22;50.02;99008.78;7315008;19;128862;-39
2023/07/15 06:38:22;;;;;;;60.17;3.13;;;;;;;26.24;50.47;99008.59;7315430;19;130141;-37
2023/07/15 06:40:47;;;;;;;12.98;0.80;;;;;;;26.53;53.68;99012.00;7314331;19;129150;-37
2023/07/15 06:43:12;;;;;;;41.80;2.37;;;;;;;26.65;53.95;99010.56;7314631;19;129238;-37
2023/07/15 06:45:38;;;;;;;28.97;1.83;;;;;;;26.71;53.63;99009.81;7314502;19;129731;-36
2023/07/15 06:48:04;;;;;;;57.33;3.50;;;;;;;26.74;53.87;99004.16;7313164;19;129416;-36
2023/07/15 06:50:29;;;;;;;32.50;1.93;;;;;;;26.77;53.50;99003.78;7313737;19;131141;-36
2023/07/15 06:52:55;;;;;;;30.13;1.73;;;;;;;26.79;53.93;99014.94;7314593;19;129044;-39
2023/07/15 06:55:21;;;;;;;23.30;1.53;;;;;;;26.80;54.30;99008.69;7315529;19;129311;-37
2023/07/15 06:57:47;;;;;;;27.13;1.63;;;;;;;26.80;53.99;99003.41;7314690;19;130383;-38
2023/07/15 07:00:13;;;;;;;74.93;4.57;;;;;;;26.82;53.68;99005.88;7312750;19;129514;-38
2023/07/15 07:02:38;;;;;;;34.93;2.00;;;;;;;26.82;53.78;99000.59;7315185;19;129305;-39
2023/07/15 07:05:04;;;;;;;43.07;2.67;;;;;;;26.82;54.66;99001.38;7314361;19;129991;-40
2023/07/15 07:07:29;;;;;;;17.57;1.13;;;;;;;26.82;54.35;99001.38;7311763;19;129310;-37
2023/07/15 07:09:54;;;;;;;45.90;2.47;;;;;;;26.78;52.71;99000.16;7313713;19;130515;-38
2023/07/15 07:12:22;;;;;;;58.53;3.60;;;;;;;26.41;50.84;99002.94;7312611;19;130471;-36
2023/07/15 07:14:47;;;;;;;38.17;2.25;;;;;;;26.25;50.12;98997.06;7313887;19;130167;-39
2023/07/15 07:17:13;;;;;;;67.30;4.10;;;;;;;26.27;52.64;98995.88;7310798;19;129131;-37
2023/07/15 07:19:38;;;;;;;22.00;1.43;;;;;;;26.55;53.71;98996.81;7313267;19;131769;-37
2023/07/15 07:22:04;;;;;;;26.37;1.57;;;;;;;26.66;53.54;98988.44;7311852;19;129461;-40
2023/07/15 07:24:29;;;;;;;61.97;3.53;;;;;;;26.72;53.77;98987.72;7312951;19;128977;-37
2023/07/15 07:26:54;;;;;;;9.83;0.77;;;;;;;26.75;53.90;98987.34;7311588;19;130231;-38
2023/07/15 07:29:20;;;;;;;47.13;2.70;;;;;;;26.77;53.88;98980.06;7312527;19;130328;-38
2023/07/15 07:31:45;;;;;;;34.67;2.20;;;;;;;26.80;54.00;98981.50;7311658;19;130298;-37
2023/07/15 07:34:11;;;;;;;50.17;2.67;;;;;;;26.80;53.76;98976.22;7313720;19;129206;-35
2023/07/15 07:36:36;;;;;;;52.03;3.13;;;;;;;26.81;53.82;98975.19;7312202;19;129221;-38
2023/07/15 07:39:01;;;;;;;44.27;2.47;;;;;;;26.82;54.52;98971.56;7312457;19;131978;-38
2023/07/15 07:41:27;;;;;;;22.20;1.47;;;;;;;26.83;54.62;98967.91;7310937;19;129395;-39
2023/07/15 07:43:52;;;;;;;60.10;3.70;;;;;;;26.82;54.67;98967.09;7312020;19;128838;-38
2023/07/15 07:46:17;;;;;;;36.77;2.10;;;;;;;26.83;54.40;98974.03;7311861;19;130933;-36
2023/07/15 07:48:43;;;;;;;35.93;2.07;;;;;;;26.56;51.98;98964.16;7311644;19;129649;-38
2023/07/15 07:51:08;;;;;;;41.63;2.73;;;;;;;26.27;50.08;98964.25;7311270;19;129611;-37
2023/07/15 07:53:33;;;;;;;29.23;1.63;;;;;;;26.22;50.18;98968.44;7312870;19;129523;-38
2023/07/15 07:55:59;;;;;;;69.77;4.03;;;;;;;26.40;53.48;98959.13;7311464;19;129765;-40
2023/07/15 07:58:24;;;;;;;29.87;1.63;;;;;;;26.32;51.03;98945.25;7313158;19;130333;-40
2023/07/15 08:00:50;;;;;;;14.13;0.87;;;;;;;26.14;50.06;98953.56;7311715;19;128877;-35
2023/07/15 08:03:15;;;;;;;36.27;2.13;;;;;;;26.11;50.10;98959.19;7311959;19;128832;-39
2023/07/15 08:05:45;;;;;;;41.27;2.27;;;;;;;26.10;50.56;98954.91;7311727;19;130226;-33
2023/07/15 08:08:12;;;;;;;45.63;2.92;;;;;;;26.42;53.29;98957.13;7312287;19;130195;-38
2023/07/15 08:10:37;;;;;;;29.08;1.70;;;;;;;26.58;53.37;98951.63;7312214;19;130153;-35
2023/07/15 08:13:05;;;;;;;28.70;1.70;;;;;;;26.60;53.60;98939.06;7311659;19;129146;-38
2023/07/15 08:15:31;;;;;;;45.63;2.55;;;;;;;26.72;53.54;98950.78;7310801;19;132379;-37
2023/07/15 08:17:56;;;;;;;32.80;1.80;;;;;;;26.67;53.48;98940.00;7312533;19;129727;-39
2023/07/15 08:20:22;;;;;;;43.30;2.73;;;;;;;26.76;53.56;98946.75;7310981;19;129343;-35
2023/07/15 08:22:47;;;;;;;21.87;1.30;;;;;;;26.78;54.24;98950.03;7311704;19;128941;-37
2023/07/15 08:25:12;;;;;;;47.93;2.53;;;;;;;26.77;53.59;98944.94;7311208;19;130264;-37
2023/07/15 08:27:38;;;;;;;51.97;3.17;;;;;;;26.79;54.03;98943.72;7307029;19;131154;-36
2023/07/15 08:30:04;;;;;;;22.33;1.20;;;;;;;26.81;53.89;98943.53;7311479;19;129191;-38
2023/07/15 08:32:30;;;;;;;;;;;;;;;26.91;53.99;98942.22;7310472;19;129244;-41
2023/07/15 08:35:04;;;;;;;59.50;3.20;;;;;;;26.76;53.98;98932.75;7312034;19;130357;-39
2023/07/15 08:37:29;;;;;;;32.53;1.88;;;;;;;26.80;53.81;98934.84;7311393;19;129240;-39
2023/07/15 08:39:55;;;;;;;31.40;1.77;;;;;;;26.82;53.77;98935.44;7310001;19;128963;-39
2023/07/15 08:42:20;;;;;;;37.03;2.17;;;;;;;26.81;54.72;98936.47;7311790;19;129574;-36
2023/07/15 08:44:47;;;;;;;88.80;5.17;;;;;;;26.53;51.42;98938.19;7309794;19;131062;-42
2023/07/15 08:47:19;;;;;;;36.10;2.08;;;;;;;26.38;50.35;98936.59;7309156;19;130527;-40
2023/07/15 08:49:44;;;;;;;19.58;1.23;;;;;;;26.20;50.10;98944.06;7310774;19;129060;-38
2023/07/15 08:52:11;;;;;;;34.27;2.00;;;;;;;26.44;54.00;98936.69;7307912;19;128930;-38
2023/07/15 08:54:38;;;;;;;47.75;2.78;;;;;;;26.63;53.69;98943.13;7311318;19;129258;-36
2023/07/15 08:57:05;;;;;;;87.07;5.13;;;;;;;26.67;53.83;98936.53;7310007;19;130376;-38
2023/07/15 08:59:31;;;;;;;25.60;1.45;;;;;;;26.65;54.19;98933.22;7312604;19;129989;-38
2023/07/15 09:01:56;;;;;;;41.00;2.43;;;;;;;26.76;53.95;98944.13;7308952;19;130069;-38
2023/07/15 09:04:21;;;;;;;36.93;2.10;;;;;;;26.77;54.11;98937.84;7312287;19;130158;-38
2023/07/15 09:06:47;;;;;;;35.60;2.17;;;;;;;26.79;53.78;98940.31;7309676;19;129850;-36
2023/07/15 09:09:12;;;;;;;44.40;2.83;;;;;;;26.79;54.17;98943.72;7308919;19;130588;-40
2023/07/15 09:11:42;;;;;;;24.97;1.60;;;;;;;26.80;54.57;98937.47;7309412;19;130103;-38
2023/07/15 09:14:17;;;;;;;40.03;2.33;;;;;;;26.81;54.22;98936.47;7309820;19;130370;-37
2023/07/15 09:16:42;;;;;;;38.30;2.13;;;;;;;26.78;54.61;98931.56;7310179;19;130367;-40
2023/07/15 09:19:08;;;;;;;19.87;1.20;;;;;;;26.80;54.34;98939.28;7309343;19;129364;-36
2023/07/15 09:21:33;;;;;;;28.17;1.67;;;;;;;26.73;52.23;98933.94;7307990;19;130696;-39
2023/07/15 09:24:02;;;;;;;26.07;1.60;;;;;;;26.21;50.21;98916.75;7310385;19;130105;-38
2023/07/15 09:26:29;;;;;;;50.25;3.10;;;;;;;26.19;49.90;98930.09;7307976;19;131839;-39
2023/07/15 09:28:54;;;;;;;;;;;;;;;26.38;54.01;98926.88;7311208;19;128986;-41
2023/07/15 09:31:26;;;;;;;30.27;1.67;;;;;;;26.51;54.15;98913.81;7308051;19;129396;-40
2023/07/15 09:34:01;;;;;;;52.92;3.10;;;;;;;26.68;53.63;98931.06;7308984;19;130295;-38
2023/07/15 09:36:31;;;;;;;79.72;4.38;;;;;;;26.71;54.39;98924.59;7308001;19;132184;-39
2023/07/15 09:39:02;;;;;;;31.17;1.90;;;;;;;26.74;54.07;98925.03;7310088;19;129140;-39
2023/07/15 09:41:28;;;;;;;40.38;2.45;;;;;;;26.75;53.94;98926.69;7312309;19;129020;-36
2023/07/15 09:43:53;;;;;;;24.63;1.47;;;;;;;26.77;54.05;98924.66;7317531;19;130745;-35
2023/07/15 09:46:21;;;;;;;36.73;2.03;;;;;;;26.77;54.53;98914.13;7315750;19;130403;-38
2023/07/15 09:48:48;;;;;;;45.90;2.70;;;;;;;26.78;54.17;98909.63;7314053;19;128855;-35
2023/07/15 09:51:16;;;;;;;28.33;1.63;;;;;;;26.77;53.89;98914.13;7315476;19;129247;-36
2023/07/15 09:53:44;;;;;;;49.58;3.17;;;;;;;26.77;53.87;98913.28;7314976;19;130254;-38
2023/07/15 09:56:10;;;;;;;31.60;1.85;;;;;;;26.77;54.51;98914.13;7315380;19;129602;-39
2023/07/15 09:58:39;;;;;;;68.05;3.85;;;;;;;26.52;51.02;98914.63;7315096;19;128838;-40
2023/07/15 10:01:11;;;;;;;46.35;2.55;;;;;;;26.23;50.64;98905.00;7315147;19;128967;-38
2023/07/15 10:04:04;;;;;;;41.60;2.40;;;;;;;26.16;50.07;98909.41;7314765;19;130320;-36
2023/07/15 10:06:30;;;;;;;27.05;1.58;;;;;;;26.42;53.45;98909.69;7314495;19;130567;-38
2023/07/15 10:08:57;;;;;;;22.03;1.47;;;;;;;26.59;53.60;98916.31;7315169;19;129274;-39
2023/07/15 10:11:22;;;;;;;27.27;1.52;;;;;;;26.65;53.95;98913.00;7314499;19;129173;-37
2023/07/15 10:13:48;;;;;;;60.67;3.60;;;;;;;26.72;53.86;98915.69;7314684;19;130181;-41
2023/07/15 10:16:13;;;;;;;37.07;2.07;;;;;;;26.74;53.57;98918.94;7316375;19;130175;-35
2023/07/15 10:18:39;;;;;;;23.93;1.47;;;;;;;26.76;53.95;98917.75;7315595;19;129959;-38
2023/07/15 10:21:05;;;;;;;47.07;2.53;;;;;;;26.77;53.73;98913.28;7314268;19;130239;-36
2023/07/15 10:23:32;;;;;;;23.23;1.40;;;;;;;26.76;53.77;98904.56;7316896;19;130140;-36
2023/07/15 10:26:00;;;;;;;55.67;3.53;;;;;;;26.68;54.11;98888.88;7315434;19;129914;-39
2023/07/15 10:28:29;;;;;;;28.30;1.60;;;;;;;26.77;54.38;98898.28;7315144;19;129075;-40
2023/07/15 10:31:13;;;;;;;60.95;3.45;;;;;;;26.80;54.44;98894.44;7312685;19;129067;-36
2023/07/15 10:33:55;;;;;;;46.47;2.55;;;;;;;26.80;54.29;98887.34;7315064;19;131058;-37
2023/07/15 10:36:34;;;;;;;50.15;2.67;;;;;;;26.39;51.27;98899.53;7315255;19;130502;-36
2023/07/15 10:39:09;;;;;;;59.22;3.55;;;;;;;26.22;50.64;98879.66;7313780;19;130199;-37
2023/07/15 10:41:42;;;;;;;42.85;2.35;;;;;;;26.22;51.27;98887.56;7315273;19;130350;-39
2023/07/15 10:44:25;;;;;;;63.63;3.85;;;;;;;26.54;53.89;98902.09;7313743;19;130649;-39
2023/07/15 10:46:52;;;;;;;9.73;0.63;;;;;;;26.63;54.27;98900.94;7313545;19;129271;-38
2023/07/15 10:49:18;;;;;;;34.55;2.15;;;;;;;26.68;53.71;98899.41;7313062;19;129330;-36
2023/07/15 10:51:45;;;;;;;62.17;3.37;;;;;;;26.71;53.62;98909.59;7311293;19;128920;-40
2023/07/15 10:54:10;;;;;;;63.55;3.90;;;;;;;26.73;53.67;98902.31;7313975;19;130148;-36
2023/07/15 10:56:36;;;;;;;48.50;2.57;;;;;;;26.69;54.10;98895.75;7313873;19;130400;-39
2023/07/15 10:59:01;;;;;;;24.43;1.47;;;;;;;26.77;54.03;98900.09;7313310;19;128978;-39
2023/07/15 11:01:26;;;;;;;37.67;2.17;;;;;;;26.77;54.23;98893.03;7312487;19;129853;-36
2023/07/15 11:03:52;;;;;;;70.27;4.20;;;;;;;26.71;54.09;98882.38;7313642;19;130066;-39
2023/07/15 11:06:17;;;;;;;55.57;3.40;;;;;;;26.77;54.56;98903.56;7313473;19;130055;-39
2023/07/15 11:08:44;;;;;;;31.20;1.83;;;;;;;26.78;54.53;98910.47;7313764;19;129676;-34
2023/07/15 11:11:11;;;;;;;39.45;2.15;;;;;;;26.78;54.79;98909.63;7313032;19;128921;-40
2023/07/15 11:13:38;;;;;;;32.95;2.03;;;;;;;26.33;50.32;98889.69;7314956;19;129369;-38
2023/07/15 11:16:04;;;;;;;25.90;1.58;;;;;;;26.25;50.25;98903.00;7314763;19;130447;-36